createdAt,value
2022-08-27T00:00:45.321Z,81.87
2022-08-27T00:03:48.162Z,82.13
2022-08-27T00:06:51.154Z,81.93
2022-08-27T00:09:53.988Z,82.17
2022-08-27T00:12:57.196Z,82.09
2022-08-27T00:16:00.081Z,82.18
2022-08-27T00:19:04.484Z,82.37
2022-08-27T00:22:09.219Z,82.55
2022-08-27T00:25:12.913Z,82.54
2022-08-27T00:28:15.814Z,82.52
2022-08-27T00:31:19.166Z,82.51
2022-08-27T00:34:26.532Z,82.53
2022-08-27T00:37:29.593Z,82.66
2022-08-27T00:40:33.647Z,82.69
2022-08-27T00:43:48.954Z,82.86
2022-08-27T00:46:56.440Z,83.04
2022-08-27T00:50:05.728Z,83.26
2022-08-27T00:53:19.776Z,83.25
2022-08-27T00:56:27.350Z,83.24
2022-08-27T00:59:32.833Z,82.98
2022-08-27T01:02:36.319Z,83.17
2022-08-27T01:05:39.948Z,83.41
2022-08-27T01:08:50.461Z,83.67
2022-08-27T01:11:56.047Z,83.81
2022-08-27T01:15:01.051Z,83.76
2022-08-27T01:18:06.480Z,83.81
2022-08-27T01:21:22.463Z,83.61
2022-08-27T01:24:31.712Z,83.43
2022-08-27T01:27:35.541Z,83.53
2022-08-27T01:30:40.308Z,83.51
2022-08-27T01:33:58.698Z,83.66
2022-08-27T01:37:01.578Z,83.67
2022-08-27T01:40:08.471Z,83.86
2022-08-27T01:43:12.160Z,84.00
2022-08-27T01:46:15.951Z,84.05
2022-08-27T01:49:18.736Z,84.08
2022-08-27T01:52:26.010Z,84.12
2022-08-27T01:55:28.863Z,84.10
2022-08-27T01:58:33.768Z,84.23
2022-08-27T02:01:36.610Z,84.35
2022-08-27T02:04:40.409Z,84.66
2022-08-27T02:07:43.251Z,84.65
2022-08-27T02:10:48.524Z,84.72
2022-08-27T02:13:51.339Z,84.67
2022-08-27T02:16:55.058Z,84.80
2022-08-27T02:19:58.870Z,84.78
2022-08-27T02:23:02.862Z,84.87
2022-08-27T02:26:05.818Z,84.73
2022-08-27T02:29:09.044Z,84.81
2022-08-27T02:32:17.769Z,84.78
2022-08-27T02:35:33.251Z,84.92
2022-08-27T02:38:36.411Z,84.93
2022-08-27T02:41:39.462Z,84.85
2022-08-27T02:44:43.346Z,84.97
2022-08-27T02:47:47.064Z,84.99
2022-08-27T02:50:50.082Z,85.06
2022-08-27T02:53:53.773Z,85.00
2022-08-27T02:56:56.715Z,84.96
2022-08-27T02:59:59.738Z,85.08
2022-08-27T03:03:02.701Z,85.14
2022-08-27T03:06:05.834Z,85.32
2022-08-27T03:09:10.535Z,85.35
2022-08-27T03:12:13.752Z,85.33
2022-08-27T03:19:02.100Z,85.01
2022-08-27T03:22:06.581Z,84.70
2022-08-27T03:25:10.761Z,84.78
2022-08-27T03:28:23.340Z,84.79
2022-08-27T03:31:28.056Z,84.44
2022-08-27T03:34:31.214Z,84.35
2022-08-27T03:37:35.341Z,84.34
2022-08-27T03:40:38.527Z,84.44
2022-08-27T03:43:41.786Z,84.62
2022-08-27T03:46:44.943Z,84.66
2022-08-27T03:49:47.782Z,84.63
2022-08-27T03:52:51.028Z,84.61
2022-08-27T03:55:53.932Z,84.57
2022-08-27T03:58:57.064Z,84.77
2022-08-27T04:02:02.187Z,84.64
2022-08-27T04:05:06.161Z,84.73
2022-08-27T04:08:13.554Z,84.73
2022-08-27T04:11:16.935Z,84.67
2022-08-27T04:14:26.978Z,84.58
2022-08-27T04:17:32.157Z,84.53
2022-08-27T04:20:36.132Z,84.35
2022-08-27T04:23:40.790Z,84.24
2022-08-27T04:26:47.522Z,83.98
2022-08-27T04:29:54.786Z,83.97
2022-08-27T04:32:58.245Z,83.90
2022-08-27T04:36:10.620Z,83.80
2022-08-27T04:39:15.191Z,83.74
2022-08-27T04:42:20.083Z,83.86
2022-08-27T04:45:23.124Z,83.80
2022-08-27T04:48:26.474Z,83.66
2022-08-27T04:51:30.438Z,83.77
2022-08-27T04:54:34.210Z,83.74
2022-08-27T04:57:38.126Z,83.69
2022-08-27T05:00:48.825Z,83.85
2022-08-27T05:03:52.796Z,83.93
2022-08-27T05:06:56.917Z,83.76
2022-08-27T05:10:00.093Z,83.86
2022-08-27T05:13:03.753Z,83.78
2022-08-27T05:16:08.964Z,83.61
2022-08-27T05:19:16.371Z,83.58
2022-08-27T05:22:19.344Z,83.69
2022-08-27T05:25:23.684Z,83.67
2022-08-27T05:28:29.068Z,83.62
2022-08-27T05:31:33.193Z,83.99
2022-08-27T05:34:36.606Z,84.41
2022-08-27T05:37:39.800Z,84.43
2022-08-27T05:40:44.033Z,84.54
2022-08-27T05:43:50.243Z,84.77
2022-08-27T05:46:54.837Z,84.47
2022-08-27T05:49:58.258Z,84.12
2022-08-27T05:53:01.186Z,83.13
2022-08-27T05:56:04.498Z,82.67
2022-08-27T05:59:27.336Z,81.89
2022-08-27T06:02:30.842Z,80.84
2022-08-27T06:05:33.867Z,80.22
2022-08-27T06:08:38.838Z,80.81
2022-08-27T06:11:41.813Z,80.99
2022-08-27T06:14:44.797Z,80.66
2022-08-27T06:17:47.773Z,80.55
2022-08-27T06:20:50.937Z,80.69
2022-08-27T06:23:54.922Z,80.58
2022-08-27T06:26:57.970Z,80.53
2022-08-27T06:30:00.961Z,80.61
2022-08-27T06:33:04.307Z,80.59
2022-08-27T06:36:10.706Z,80.76
2022-08-27T06:39:17.106Z,80.73
2022-08-27T06:42:20.811Z,80.67
2022-08-27T06:45:29.436Z,80.49
2022-08-27T06:48:32.836Z,80.43
2022-08-27T06:51:38.803Z,79.99
2022-08-27T06:54:41.597Z,80.00
2022-08-27T06:57:45.026Z,79.93
2022-08-27T07:00:49.108Z,79.80
2022-08-27T07:03:54.861Z,80.04
2022-08-27T07:07:04.424Z,80.23
2022-08-27T07:10:08.552Z,80.23
2022-08-27T07:13:11.493Z,79.06
2022-08-27T07:16:22.235Z,78.83
2022-08-27T07:19:28.491Z,79.08
2022-08-27T07:22:33.844Z,79.37
2022-08-27T07:25:36.723Z,79.37
2022-08-27T07:28:41.696Z,78.75
2022-08-27T07:31:44.684Z,78.21
2022-08-27T07:34:47.739Z,77.50
2022-08-27T07:37:51.251Z,77.00
2022-08-27T07:40:54.541Z,76.38
2022-08-27T07:44:16.310Z,76.40
2022-08-27T07:47:19.966Z,76.22
2022-08-27T07:50:24.677Z,75.66
2022-08-27T07:53:28.051Z,75.86
2022-08-27T07:56:31.214Z,75.86
2022-08-27T07:59:34.934Z,75.65
2022-08-27T08:02:39.401Z,75.86
2022-08-27T08:05:43.858Z,76.24
2022-08-27T08:08:47.049Z,76.62
2022-08-27T08:11:54.514Z,76.62
2022-08-27T08:14:58.588Z,75.40
2022-08-27T08:18:02.415Z,75.21
2022-08-27T08:21:08.611Z,75.63
2022-08-27T08:24:11.817Z,75.71
2022-08-27T08:27:14.753Z,75.50
2022-08-27T08:30:18.135Z,75.39
2022-08-27T08:33:22.111Z,74.90
2022-08-27T08:36:25.206Z,74.74
2022-08-27T08:39:28.305Z,74.20
2022-08-27T08:42:45.006Z,73.63
2022-08-27T08:45:55.944Z,73.41
2022-08-27T08:49:32.544Z,73.24
2022-08-27T08:52:35.530Z,73.18
2022-08-27T08:55:42.150Z,72.90
2022-08-27T08:58:56.174Z,72.44
2022-08-27T09:02:00.301Z,72.03
2022-08-27T09:05:05.941Z,72.00
2022-08-27T09:08:34.013Z,70.41
2022-08-27T09:11:52.600Z,70.05
2022-08-27T09:15:09.325Z,70.22
2022-08-27T09:18:17.111Z,70.61
2022-08-27T09:21:35.118Z,71.30
2022-08-27T09:25:06.425Z,71.54
2022-08-27T09:28:38.707Z,71.54
2022-08-27T09:31:47.774Z,71.11
2022-08-27T09:34:52.352Z,71.05
2022-08-27T09:37:57.755Z,70.91
2022-08-27T09:41:19.860Z,71.59
2022-08-27T09:44:23.287Z,71.93
2022-08-27T09:47:27.880Z,71.23
2022-08-27T09:50:32.802Z,70.84
2022-08-27T09:53:39.347Z,71.08
2022-08-27T09:56:51.119Z,70.12
2022-08-27T09:59:55.395Z,69.51
2022-08-27T10:03:00.658Z,68.66
2022-08-27T10:06:04.004Z,67.47
2022-08-27T10:09:09.914Z,67.80
2022-08-27T10:12:41.590Z,65.73
2022-08-27T10:16:15.523Z,58.20
2022-08-27T10:19:43.638Z,57.16
2022-08-27T10:23:16.640Z,59.77
2022-08-27T10:26:40.988Z,60.58
2022-08-27T10:29:56.018Z,58.08
2022-08-27T10:33:14.842Z,51.73
2022-08-27T10:36:26.856Z,53.98
2022-08-27T10:39:57.619Z,58.53
2022-08-27T10:43:41.860Z,61.26
2022-08-27T10:47:00.063Z,63.20
2022-08-27T10:50:08.775Z,65.31
2022-08-27T10:53:23.438Z,63.65
2022-08-27T10:56:31.559Z,62.28
2022-08-27T11:00:06.690Z,61.06
2022-08-27T11:03:16.070Z,62.71
2022-08-27T11:06:49.458Z,55.34
2022-08-27T11:10:21.080Z,49.72
2022-08-27T11:13:35.645Z,50.94
2022-08-27T11:16:49.211Z,53.96
2022-08-27T11:19:59.570Z,56.28
2022-08-27T11:23:16.878Z,58.06
2022-08-27T11:26:20.047Z,58.64
2022-08-27T11:29:32.225Z,58.34
2022-08-27T11:32:45.817Z,57.37
2022-08-27T11:36:27.275Z,56.31
2022-08-27T11:40:06.068Z,55.46
2022-08-27T11:43:18.799Z,51.73
2022-08-27T11:46:25.741Z,49.88
2022-08-27T11:49:54.878Z,49.17
2022-08-27T11:53:00.086Z,48.36
2022-08-27T11:56:40.155Z,47.44
2022-08-27T11:59:44.029Z,44.49
2022-08-27T12:03:10.744Z,47.50
2022-08-27T12:06:26.725Z,53.10
2022-08-27T12:09:42.926Z,52.92
2022-08-27T12:13:12.388Z,47.22
2022-08-27T12:16:35.405Z,43.83
2022-08-27T12:20:10.120Z,44.05
2022-08-27T12:23:32.089Z,43.58
2022-08-27T12:26:38.268Z,44.23
2022-08-27T12:29:53.243Z,44.50
2022-08-27T12:32:59.885Z,43.81
2022-08-27T12:36:35.288Z,48.74
2022-08-27T12:39:43.861Z,51.30
2022-08-27T12:42:47.331Z,51.22
2022-08-27T12:46:01.733Z,51.72
2022-08-27T12:49:36.103Z,52.60
2022-08-27T12:52:56.729Z,51.96
2022-08-27T12:56:23.456Z,51.86
2022-08-27T12:59:45.403Z,51.07
2022-08-27T13:03:22.347Z,52.52
2022-08-27T13:06:37.172Z,52.75
2022-08-27T13:09:40.657Z,51.73
2022-08-27T13:12:46.327Z,51.85
2022-08-27T13:15:56.753Z,48.93
2022-08-27T13:19:00.511Z,47.79
2022-08-27T13:22:06.308Z,45.74
2022-08-27T13:25:31.595Z,47.56
2022-08-27T13:28:37.102Z,48.23
2022-08-27T13:31:41.059Z,50.95
2022-08-27T13:34:44.234Z,50.78
2022-08-27T13:37:57.754Z,51.21
2022-08-27T13:41:07.161Z,50.37
2022-08-27T13:44:20.671Z,52.64
2022-08-27T13:47:26.450Z,54.57
2022-08-27T13:50:32.538Z,54.31
2022-08-27T13:53:55.420Z,55.19
2022-08-27T13:57:10.050Z,55.69
2022-08-27T14:00:32.318Z,54.36
2022-08-27T14:03:45.857Z,54.17
2022-08-27T14:06:49.296Z,55.22
2022-08-27T14:10:02.256Z,55.30
2022-08-27T14:13:25.312Z,54.65
2022-08-27T14:16:34.505Z,55.63
2022-08-27T14:19:40.233Z,55.55
2022-08-27T14:22:44.803Z,57.76
2022-08-27T14:25:49.173Z,56.83
2022-08-27T14:28:55.016Z,57.24
2022-08-27T14:31:57.999Z,58.21
2022-08-27T14:35:01.250Z,58.49
2022-08-27T14:38:11.865Z,58.25
2022-08-27T14:41:16.709Z,58.75
2022-08-27T14:44:25.251Z,59.28
2022-08-27T14:47:32.167Z,58.82
2022-08-27T14:50:38.150Z,58.82
2022-08-27T14:53:42.784Z,59.39
2022-08-27T14:56:46.988Z,59.31
2022-08-27T14:59:53.070Z,59.81
2022-08-27T15:02:59.587Z,59.38
2022-08-27T15:06:06.848Z,59.64
2022-08-27T15:09:12.791Z,59.64
2022-08-27T15:12:26.105Z,59.54
2022-08-27T15:15:30.189Z,58.90
2022-08-27T15:18:34.281Z,57.51
2022-08-27T15:21:40.312Z,57.15
2022-08-27T15:24:56.899Z,57.19
2022-08-27T15:28:00.415Z,57.32
2022-08-27T15:31:04.090Z,58.18
2022-08-27T15:34:07.885Z,58.87
2022-08-27T15:37:11.650Z,58.46
2022-08-27T15:40:17.052Z,58.30
2022-08-27T15:43:20.800Z,58.41
2022-08-27T15:46:26.414Z,57.85
2022-08-27T15:49:30.282Z,57.73
2022-08-27T15:52:41.288Z,57.59
2022-08-27T15:55:45.723Z,58.10
2022-08-27T15:58:49.600Z,58.75
2022-08-27T16:01:53.294Z,59.25
2022-08-27T16:04:56.402Z,60.81
2022-08-27T16:07:59.600Z,60.45
2022-08-27T16:11:03.581Z,61.15
2022-08-27T16:14:08.175Z,61.51
2022-08-27T16:17:12.792Z,61.09
2022-08-27T16:20:16.747Z,60.89
2022-08-27T16:23:20.482Z,61.19
2022-08-27T16:26:23.703Z,60.35
2022-08-27T16:29:27.119Z,59.15
2022-08-27T16:32:31.580Z,58.34
2022-08-27T16:35:34.545Z,57.44
2022-08-27T16:38:38.218Z,57.67
2022-08-27T16:41:42.352Z,58.59
2022-08-27T16:44:45.748Z,58.70
2022-08-27T16:48:08.572Z,59.15
2022-08-27T16:51:22.306Z,58.92
2022-08-27T16:54:27.022Z,58.83
2022-08-27T16:57:30.341Z,59.55
2022-08-27T17:00:33.446Z,59.84
2022-08-27T17:04:06.822Z,61.69
2022-08-27T17:07:06.696Z,60.76
2022-08-27T17:10:11.817Z,60.75
2022-08-27T17:13:18.694Z,60.44
2022-08-27T17:16:25.316Z,60.71
2022-08-27T17:19:28.586Z,60.83
2022-08-27T17:22:31.899Z,60.50
2022-08-27T17:25:34.897Z,60.22
2022-08-27T17:28:40.887Z,60.72
2022-08-27T17:31:44.081Z,60.49
2022-08-27T17:34:47.415Z,60.37
2022-08-27T17:37:50.277Z,60.95
2022-08-27T17:40:54.679Z,61.82
2022-08-27T17:43:59.557Z,62.63
2022-08-27T17:47:04.759Z,63.62
2022-08-27T17:50:09.859Z,63.95
2022-08-27T17:53:13.587Z,64.70
2022-08-27T17:56:18.689Z,64.18
2022-08-27T17:59:21.977Z,64.23
2022-08-27T18:02:36.692Z,64.21
2022-08-27T18:05:40.205Z,64.29
2022-08-27T18:08:43.436Z,64.79
2022-08-27T18:11:46.877Z,64.73
2022-08-27T18:14:54.136Z,65.15
2022-08-27T18:17:58.415Z,65.61
2022-08-27T18:21:02.508Z,65.98
2022-08-27T18:24:06.424Z,66.42
2022-08-27T18:27:10.147Z,66.75
2022-08-27T18:30:13.770Z,67.26
2022-08-27T18:33:16.722Z,67.77
2022-08-27T18:36:20.131Z,68.18
2022-08-27T18:39:25.722Z,68.31
2022-08-27T18:42:29.391Z,69.21
2022-08-27T18:45:34.776Z,70.46
2022-08-27T18:48:38.719Z,69.18
2022-08-27T18:51:48.160Z,69.47
2022-08-27T18:54:54.309Z,69.67
2022-08-27T18:57:57.292Z,70.10
2022-08-27T19:01:02.208Z,70.30
2022-08-27T19:04:05.620Z,71.19
2022-08-27T19:07:09.094Z,70.36
2022-08-27T19:10:13.766Z,70.36
2022-08-27T19:13:18.084Z,70.58
2022-08-27T19:16:24.435Z,70.91
2022-08-27T19:19:28.752Z,71.08
2022-08-27T19:22:32.397Z,71.30
2022-08-27T19:25:36.255Z,71.34
2022-08-27T19:28:40.359Z,71.47
2022-08-27T19:31:43.667Z,71.69
2022-08-27T19:34:47.344Z,71.70
2022-08-27T19:37:52.992Z,71.82
2022-08-27T19:40:57.969Z,72.40
2022-08-27T19:44:01.840Z,72.37
2022-08-27T19:47:04.864Z,72.44
2022-08-27T19:50:09.509Z,72.54
2022-08-27T19:53:13.427Z,72.54
2022-08-27T19:56:19.700Z,72.69
2022-08-27T19:59:24.502Z,72.77
2022-08-27T20:02:30.094Z,73.00
2022-08-27T20:05:35.863Z,73.09
2022-08-27T20:08:40.282Z,73.09
2022-08-27T20:11:46.549Z,72.95
2022-08-27T20:14:53.962Z,72.99
2022-08-27T20:18:00.536Z,73.17
2022-08-27T20:21:05.987Z,73.49
2022-08-27T20:24:10.784Z,73.51
2022-08-27T20:27:16.372Z,73.60
2022-08-27T20:30:22.989Z,73.80
2022-08-27T20:33:28.266Z,74.25
2022-08-27T20:36:34.680Z,74.09
2022-08-27T20:39:40.864Z,74.25
2022-08-27T20:42:46.134Z,73.96
2022-08-27T20:45:51.613Z,73.91
2022-08-27T20:48:57.170Z,74.42
2022-08-27T20:55:09.240Z,74.19
2022-08-27T20:58:32.977Z,74.04
2022-08-27T21:01:36.398Z,74.37
2022-08-27T21:04:46.891Z,74.70
2022-08-27T21:07:51.287Z,74.58
2022-08-27T21:10:58.958Z,74.07
2022-08-27T21:14:08.235Z,74.14
2022-08-27T21:17:16.546Z,74.36
2022-08-27T21:20:20.657Z,74.44
2022-08-27T21:23:29.511Z,74.22
2022-08-27T21:26:34.546Z,73.92
2022-08-27T21:29:38.855Z,74.02
2022-08-27T21:32:42.568Z,73.94
2022-08-27T21:35:46.560Z,73.98
2022-08-27T21:38:50.366Z,74.33
2022-08-27T21:41:54.007Z,74.51
2022-08-27T21:44:57.550Z,74.63
2022-08-27T21:48:02.180Z,74.70
2022-08-27T21:51:10.890Z,74.71
2022-08-27T21:54:15.779Z,74.73
2022-08-27T21:57:20.085Z,74.79
2022-08-27T22:00:30.409Z,74.97
2022-08-27T22:03:36.233Z,75.11
2022-08-27T22:06:39.438Z,75.24
2022-08-27T22:09:42.712Z,75.40
2022-08-27T22:12:45.925Z,75.31
2022-08-27T22:15:50.379Z,75.45
2022-08-27T22:18:56.868Z,75.68
2022-08-27T22:22:00.161Z,75.87
2022-08-27T22:25:04.696Z,76.06
2022-08-27T22:28:08.019Z,76.32
2022-08-27T22:31:11.795Z,76.43
2022-08-27T22:34:15.114Z,76.48
2022-08-27T22:37:19.876Z,76.62
2022-08-27T22:40:26.397Z,76.74
2022-08-27T22:43:32.458Z,77.04
2022-08-27T22:46:36.033Z,76.74
2022-08-27T22:49:39.360Z,76.96
2022-08-27T22:52:42.671Z,76.75
2022-08-27T22:55:49.931Z,77.16
2022-08-27T22:58:53.468Z,77.31
2022-08-27T23:01:57.648Z,76.99
2022-08-27T23:05:03.580Z,76.95
2022-08-27T23:08:11.755Z,77.18
2022-08-27T23:11:16.162Z,77.11
2022-08-27T23:14:19.589Z,77.05
2022-08-27T23:17:23.961Z,76.85
2022-08-27T23:20:30.135Z,76.66
2022-08-27T23:23:34.390Z,76.86
2022-08-27T23:27:01.189Z,77.55
2022-08-27T23:30:05.187Z,77.90
2022-08-27T23:33:08.431Z,78.01
2022-08-27T23:36:11.945Z,78.21
2022-08-27T23:39:15.821Z,78.39
2022-08-27T23:42:18.863Z,78.53
2022-08-27T23:45:26.055Z,78.66
2022-08-27T23:48:29.218Z,78.47
2022-08-27T23:51:32.772Z,78.26
2022-08-27T23:54:36.579Z,78.19
2022-08-27T23:57:40.081Z,78.27
